createdAt,value
2022-12-15T00:02:24.693Z,30.48
2022-12-15T00:05:10.644Z,32.90
2022-12-15T00:07:56.707Z,27.45
2022-12-15T00:10:42.351Z,27.83
2022-12-15T00:13:32.759Z,28.75
2022-12-15T00:16:19.344Z,29.48
2022-12-15T00:19:05.455Z,29.67
2022-12-15T00:21:51.196Z,29.10
2022-12-15T00:24:37.294Z,28.08
2022-12-15T00:27:23.723Z,26.90
2022-12-15T00:30:09.465Z,28.20
2022-12-15T00:32:55.158Z,26.73
2022-12-15T00:35:41.055Z,30.48
2022-12-15T00:38:29.147Z,29.48
2022-12-15T00:40:59.355Z,30.42
2022-12-15T00:43:28.916Z,27.30
2022-12-15T00:46:15.827Z,30.73
2022-12-15T00:48:43.316Z,30.92
2022-12-15T00:51:11.074Z,31.33
2022-12-15T00:53:58.340Z,31.65
2022-12-15T00:56:45.737Z,28.98
2022-12-15T00:59:32.394Z,28.58
2022-12-15T01:02:18.851Z,30.00
2022-12-15T01:05:04.827Z,28.27
2022-12-15T01:07:50.662Z,29.63
2022-12-15T01:10:37.642Z,30.02
2022-12-15T01:13:24.212Z,29.52
2022-12-15T01:16:10.346Z,32.72
2022-12-15T01:18:56.139Z,28.60
2022-12-15T01:21:25.479Z,31.05
2022-12-15T01:23:53.503Z,27.70
2022-12-15T01:26:20.803Z,32.58
2022-12-15T01:28:48.093Z,29.48
2022-12-15T01:31:15.383Z,31.80
2022-12-15T01:33:43.657Z,29.35
2022-12-15T01:36:11.682Z,30.73
2022-12-15T01:38:39.157Z,27.45
2022-12-15T01:41:10.115Z,28.75
2022-12-15T01:51:38.582Z,27.83
2022-12-15T01:54:16.205Z,29.20
2022-12-15T01:56:46.702Z,31.52
2022-12-15T01:59:18.929Z,29.50
2022-12-15T02:01:49.785Z,28.58
2022-12-15T02:04:20.854Z,32.65
2022-12-15T02:06:47.585Z,29.63
2022-12-15T02:15:15.081Z,34.10
2022-12-15T02:18:01.160Z,28.88
2022-12-15T02:20:42.499Z,27.70
2022-12-15T02:23:40.100Z,29.30
2022-12-15T02:26:25.205Z,31.25
2022-12-15T02:29:09.925Z,27.90
2022-12-15T02:37:16.665Z,29.25
2022-12-15T02:39:43.895Z,28.67
2022-12-15T02:42:11.501Z,27.90
2022-12-15T02:44:43.368Z,32.42
2022-12-15T02:47:48.132Z,28.95
2022-12-15T02:50:35.803Z,27.10
2022-12-15T03:01:52.299Z,29.33
2022-12-15T03:04:19.499Z,34.50
2022-12-15T03:07:04.257Z,38.22
2022-12-15T03:09:31.757Z,28.92
2022-12-15T03:11:58.898Z,33.92
2022-12-15T03:14:25.647Z,33.33
2022-12-15T03:16:53.167Z,29.27
2022-12-15T03:25:58.183Z,35.22
2022-12-15T03:28:24.876Z,37.20
2022-12-15T03:30:51.419Z,35.53
2022-12-15T03:33:19.555Z,32.83
2022-12-15T03:35:46.210Z,32.42
2022-12-15T03:38:12.710Z,31.05
2022-12-15T03:40:39.342Z,27.40
2022-12-15T03:47:02.745Z,28.05
2022-12-15T03:49:30.057Z,30.83
2022-12-15T03:51:56.610Z,29.67
2022-12-15T03:54:23.156Z,29.95
2022-12-15T03:56:49.672Z,33.90
2022-12-15T03:59:16.258Z,30.55
2022-12-15T04:01:48.346Z,31.23
2022-12-15T04:04:15.005Z,31.02
2022-12-15T04:11:43.700Z,29.05
2022-12-15T04:14:10.661Z,32.45
2022-12-15T04:16:37.296Z,30.23
2022-12-15T04:19:22.449Z,27.80
2022-12-15T04:21:49.044Z,28.75
2022-12-15T04:24:34.367Z,34.55
2022-12-15T04:27:19.259Z,31.77
2022-12-15T04:35:44.490Z,31.30
2022-12-15T04:38:35.140Z,31.85
2022-12-15T04:41:20.416Z,35.85
2022-12-15T04:44:05.502Z,32.00
2022-12-15T04:46:50.592Z,36.78
2022-12-15T04:49:35.719Z,35.40
2022-12-15T04:55:27.487Z,37.60
2022-12-15T04:58:12.793Z,34.55
2022-12-15T05:00:57.860Z,34.22
2022-12-15T05:03:43.031Z,38.88
2022-12-15T05:06:28.188Z,31.95
2022-12-15T05:09:13.402Z,34.67
2022-12-15T05:15:08.712Z,36.75
2022-12-15T05:17:53.837Z,32.88
2022-12-15T05:20:38.672Z,34.35
2022-12-15T05:23:23.651Z,29.55
2022-12-15T05:26:08.692Z,37.17
2022-12-15T05:28:53.525Z,33.45
2022-12-15T05:31:38.831Z,33.75
2022-12-15T05:39:03.899Z,34.13
2022-12-15T05:41:31.429Z,38.00
2022-12-15T05:43:58.736Z,35.92
2022-12-15T05:46:26.051Z,35.08
2022-12-15T05:48:53.316Z,31.08
2022-12-15T05:51:20.547Z,34.30
2022-12-15T05:53:47.936Z,34.97
2022-12-15T05:56:15.588Z,32.50
2022-12-15T05:58:45.361Z,33.53
2022-12-15T06:01:17.487Z,36.33
2022-12-15T06:03:45.208Z,38.05
2022-12-15T06:06:13.560Z,34.95
2022-12-15T06:08:42.477Z,40.65
2022-12-15T06:11:18.263Z,37.17
2022-12-15T06:13:46.599Z,35.22
2022-12-15T06:16:17.080Z,42.38
2022-12-15T06:18:49.891Z,38.72
2022-12-15T06:21:19.605Z,34.10
2022-12-15T06:23:47.972Z,39.83
2022-12-15T06:26:27.526Z,38.80
2022-12-15T06:28:56.808Z,42.65
2022-12-15T06:31:25.696Z,33.60
2022-12-15T06:34:00.995Z,41.20
2022-12-15T06:36:30.831Z,34.08
2022-12-15T06:39:00.819Z,36.38
2022-12-15T06:41:30.549Z,38.85
2022-12-15T06:43:58.666Z,35.88
2022-12-15T06:46:27.870Z,33.45
2022-12-15T06:48:55.566Z,40.15
2022-12-15T06:51:23.402Z,37.28
2022-12-15T06:53:53.949Z,39.90
2022-12-15T06:56:34.201Z,42.25
2022-12-15T06:59:04.068Z,38.42
2022-12-15T07:01:32.564Z,39.97
2022-12-15T07:04:02.785Z,41.88
2022-12-15T07:06:37.629Z,42.92
2022-12-15T07:09:08.002Z,35.00
2022-12-15T07:11:35.499Z,34.97
2022-12-15T07:14:03.217Z,36.05
2022-12-15T07:16:30.937Z,40.78
2022-12-15T07:18:58.325Z,44.95
2022-12-15T07:21:25.603Z,40.70
2022-12-15T07:23:55.384Z,37.33
2022-12-15T07:26:24.168Z,39.33
2022-12-15T07:28:52.978Z,43.42
2022-12-15T07:31:20.433Z,37.03
2022-12-15T07:33:48.486Z,41.70
2022-12-15T07:36:16.166Z,39.60
2022-12-15T07:38:50.026Z,34.63
2022-12-15T07:41:19.711Z,35.78
2022-12-15T07:43:47.670Z,37.95
2022-12-15T07:46:15.712Z,39.75
2022-12-15T07:48:43.139Z,38.42
2022-12-15T07:51:17.397Z,35.53
2022-12-15T07:53:49.457Z,36.28
2022-12-15T07:56:16.986Z,39.05
2022-12-15T07:58:44.235Z,38.15
2022-12-15T08:01:13.661Z,36.08
2022-12-15T08:03:41.824Z,36.78
2022-12-15T08:06:14.200Z,34.72
2022-12-15T08:08:43.127Z,37.88
2022-12-15T08:11:13.572Z,40.97
2022-12-15T08:16:30.005Z,34.20
2022-12-15T08:18:57.443Z,34.53
2022-12-15T08:21:24.748Z,31.85
2022-12-15T08:23:52.137Z,31.58
2022-12-15T08:26:22.625Z,35.35
2022-12-15T08:28:54.427Z,32.97
2022-12-15T08:31:23.751Z,34.20
2022-12-15T08:33:51.575Z,28.75
2022-12-15T08:36:20.160Z,30.10
2022-12-15T08:38:47.743Z,26.77
2022-12-15T08:41:26.477Z,34.67
2022-12-15T08:43:54.990Z,37.05
2022-12-15T08:46:28.413Z,31.15
2022-12-15T08:48:56.073Z,35.43
2022-12-15T08:51:25.212Z,31.90
2022-12-15T08:53:54.463Z,32.90
2022-12-15T08:56:22.919Z,29.85
2022-12-15T08:58:56.380Z,31.80
2022-12-15T09:01:25.537Z,32.00
2022-12-15T09:03:55.010Z,28.90
2022-12-15T09:06:31.887Z,26.13
2022-12-15T09:09:01.570Z,37.15
2022-12-15T09:11:29.743Z,26.52
2022-12-15T09:13:57.701Z,26.85
2022-12-15T09:16:25.474Z,29.55
2022-12-15T09:18:55.536Z,25.02
2022-12-15T09:21:26.161Z,31.95
2022-12-15T09:23:55.606Z,27.67
2022-12-15T09:26:23.849Z,31.30
2022-12-15T09:28:52.795Z,26.90
2022-12-15T09:31:25.631Z,29.83
2022-12-15T09:33:54.744Z,27.65
2022-12-15T09:36:22.593Z,23.90
2022-12-15T09:38:50.230Z,25.58
2022-12-15T09:41:27.959Z,25.60
2022-12-15T09:44:19.844Z,23.20
2022-12-15T09:46:54.027Z,24.98
2022-12-15T09:49:27.248Z,22.05
2022-12-15T09:52:08.867Z,22.50
2022-12-15T09:54:41.787Z,23.05
2022-12-15T09:57:48.280Z,21.50
2022-12-15T10:00:24.482Z,21.20
2022-12-15T10:03:00.990Z,21.00
2022-12-15T10:06:16.133Z,23.83
2022-12-15T10:08:55.081Z,22.08
2022-12-15T10:11:43.189Z,21.60
2022-12-15T10:14:37.597Z,23.17
2022-12-15T10:17:19.850Z,22.10
2022-12-15T10:19:55.163Z,22.13
2022-12-15T10:22:30.832Z,23.10
2022-12-15T10:25:29.473Z,20.23
2022-12-15T10:28:18.123Z,23.50
2022-12-15T10:30:48.313Z,19.73
2022-12-15T10:33:33.866Z,20.20
2022-12-15T10:36:01.967Z,18.00
2022-12-15T10:38:38.012Z,20.08
2022-12-15T10:41:18.933Z,21.85
2022-12-15T10:43:50.220Z,22.30
2022-12-15T10:46:26.184Z,22.92
2022-12-15T10:48:56.745Z,27.17
2022-12-15T10:51:32.734Z,21.42
2022-12-15T10:54:09.584Z,22.08
2022-12-15T10:56:56.804Z,24.73
2022-12-15T10:59:38.323Z,25.95
2022-12-15T11:02:26.003Z,25.75
2022-12-15T11:05:04.584Z,22.65
2022-12-15T11:07:37.492Z,26.40
2022-12-15T11:11:09.770Z,25.83
2022-12-15T11:13:38.964Z,30.77
2022-12-15T11:16:24.703Z,27.98
2022-12-15T11:18:58.792Z,30.73
2022-12-15T11:21:39.388Z,40.60
2022-12-15T11:24:18.433Z,37.08
2022-12-15T11:26:49.016Z,37.38
2022-12-15T11:29:34.326Z,39.40
2022-12-15T11:32:06.968Z,45.63
2022-12-15T11:34:39.005Z,41.15
2022-12-15T11:37:44.313Z,41.15
2022-12-15T11:40:37.985Z,43.42
2022-12-15T11:43:23.923Z,40.92
2022-12-15T11:46:17.341Z,42.17
2022-12-15T11:49:00.140Z,45.58
2022-12-15T11:51:39.498Z,47.75
2022-12-15T11:54:17.931Z,46.97
2022-12-15T11:56:55.916Z,44.90
2022-12-15T11:59:26.101Z,45.60
2022-12-15T12:02:21.039Z,43.20
2022-12-15T12:05:19.512Z,46.85
2022-12-15T12:08:01.345Z,44.45
2022-12-15T12:10:45.322Z,47.17
2022-12-15T12:13:38.656Z,47.50
2022-12-15T12:16:17.867Z,41.28
2022-12-15T12:18:50.523Z,46.58
2022-12-15T12:21:25.478Z,44.00
2022-12-15T12:24:08.898Z,48.38
2022-12-15T12:26:45.184Z,48.95
2022-12-15T12:29:48.807Z,48.05
2022-12-15T12:32:16.146Z,48.50
2022-12-15T12:35:31.433Z,45.85
2022-12-15T12:38:04.442Z,47.65
2022-12-15T12:41:01.131Z,52.00
2022-12-15T12:43:33.418Z,45.67
2022-12-15T12:46:08.033Z,47.97
2022-12-15T12:48:58.887Z,47.17
2022-12-15T12:51:26.168Z,49.17
2022-12-15T12:53:54.428Z,48.20
2022-12-15T12:56:43.789Z,52.33
2022-12-15T12:59:36.389Z,51.78
2022-12-15T13:02:21.930Z,45.17
2022-12-15T13:05:01.461Z,49.55
2022-12-15T13:07:40.800Z,48.88
2022-12-15T13:10:08.044Z,47.45
2022-12-15T13:12:52.877Z,49.33
2022-12-15T13:16:10.764Z,54.50
2022-12-15T13:19:03.669Z,50.08
2022-12-15T13:21:53.571Z,48.72
2022-12-15T13:24:29.743Z,55.72
2022-12-15T13:27:09.330Z,46.55
2022-12-15T13:29:53.414Z,48.95
2022-12-15T13:32:46.099Z,54.72
2022-12-15T13:35:14.938Z,54.10
2022-12-15T13:37:58.857Z,51.15
2022-12-15T13:40:36.805Z,47.67
2022-12-15T13:43:04.098Z,56.17
2022-12-15T13:45:37.691Z,54.30
2022-12-15T13:48:14.235Z,51.92
2022-12-15T13:50:55.346Z,53.80
2022-12-15T13:53:25.854Z,50.65
2022-12-15T13:56:14.668Z,50.70
2022-12-15T13:58:47.874Z,53.33
2022-12-15T14:04:15.667Z,47.67
2022-12-15T14:06:50.907Z,53.67
2022-12-15T14:09:38.272Z,56.10
2022-12-15T14:12:12.284Z,52.38
2022-12-15T14:14:46.634Z,53.58
2022-12-15T14:17:18.549Z,49.00
2022-12-15T14:19:50.980Z,53.70
2022-12-15T14:22:28.151Z,56.13
2022-12-15T14:25:21.752Z,51.63
2022-12-15T14:27:50.934Z,52.13
2022-12-15T14:30:35.567Z,52.50
2022-12-15T14:33:07.471Z,58.67
2022-12-15T14:35:50.171Z,58.15
2022-12-15T14:38:27.292Z,57.55
2022-12-15T14:40:57.335Z,52.80
2022-12-15T14:43:29.912Z,59.03
2022-12-15T14:46:08.834Z,59.10
2022-12-15T14:48:41.788Z,59.20
2022-12-15T14:51:13.149Z,54.03
2022-12-15T14:53:42.161Z,64.75
2022-12-15T14:56:15.196Z,55.08
2022-12-15T14:58:42.668Z,55.90
2022-12-15T15:01:59.552Z,52.28
2022-12-15T15:04:31.613Z,60.40
2022-12-15T15:07:02.297Z,54.78
2022-12-15T15:09:36.756Z,56.20
2022-12-15T15:12:25.206Z,57.35
2022-12-15T15:15:03.332Z,59.63
2022-12-15T15:17:42.675Z,61.13
2022-12-15T15:20:21.569Z,54.90
2022-12-15T15:23:07.281Z,61.25
2022-12-15T15:25:40.354Z,55.33
2022-12-15T15:28:17.260Z,58.13
2022-12-15T15:30:48.919Z,59.10
2022-12-15T15:33:17.963Z,55.22
2022-12-15T15:35:51.381Z,64.72
2022-12-15T15:38:26.851Z,72.50
2022-12-15T15:40:57.087Z,70.45
2022-12-15T15:43:25.989Z,62.17
2022-12-15T15:46:02.269Z,59.88
2022-12-15T15:48:44.928Z,71.43
2022-12-15T15:51:12.688Z,57.33
2022-12-15T15:53:40.391Z,57.97
2022-12-15T15:56:11.522Z,62.08
2022-12-15T15:58:38.858Z,61.50
2022-12-15T16:01:12.730Z,66.65
2022-12-15T16:06:17.218Z,57.22
2022-12-15T16:08:46.527Z,57.03
2022-12-15T16:11:13.945Z,66.28
2022-12-15T16:13:41.285Z,62.03
2022-12-15T16:16:31.185Z,57.60
2022-12-15T16:18:58.817Z,68.75
2022-12-15T16:21:27.583Z,61.95
2022-12-15T16:23:56.960Z,58.42
2022-12-15T16:26:32.321Z,60.88
2022-12-15T16:29:00.047Z,62.65
2022-12-15T16:31:41.275Z,57.83
2022-12-15T16:34:09.142Z,57.80
2022-12-15T16:36:36.484Z,56.88
2022-12-15T16:39:04.327Z,66.78
2022-12-15T16:41:32.781Z,61.17
2022-12-15T16:44:00.044Z,64.25
2022-12-15T16:46:27.507Z,61.55
2022-12-15T16:48:55.012Z,66.25
2022-12-15T16:51:37.030Z,61.45
2022-12-15T16:54:04.673Z,64.40
2022-12-15T16:56:32.380Z,68.03
2022-12-15T16:59:30.874Z,63.40
2022-12-15T17:01:48.091Z,67.65
2022-12-15T17:04:16.552Z,65.90
2022-12-15T17:06:43.905Z,61.15
2022-12-15T17:09:19.602Z,66.15
2022-12-15T17:11:46.916Z,60.22
2022-12-15T17:14:14.415Z,60.08
2022-12-15T17:16:41.636Z,63.63
2022-12-15T17:19:08.957Z,63.38
2022-12-15T17:21:47.429Z,63.95
2022-12-15T17:24:17.189Z,64.72
2022-12-15T17:26:44.888Z,60.78
2022-12-15T17:29:26.250Z,60.75
2022-12-15T17:31:53.755Z,60.88
2022-12-15T17:34:33.248Z,60.30
2022-12-15T17:42:19.176Z,62.17
2022-12-15T17:44:48.562Z,61.72
2022-12-15T17:47:16.335Z,72.35
2022-12-15T17:49:43.755Z,69.53
2022-12-15T17:52:27.556Z,63.88
2022-12-15T17:54:55.450Z,67.80
2022-12-15T17:57:22.457Z,61.08
2022-12-15T18:04:53.336Z,71.75
2022-12-15T18:07:22.844Z,61.90
2022-12-15T18:09:51.317Z,70.60
2022-12-15T18:12:20.375Z,69.63
2022-12-15T18:14:47.282Z,68.45
2022-12-15T18:17:14.102Z,66.82
2022-12-15T18:19:40.688Z,71.22
2022-12-15T18:27:27.257Z,67.53
2022-12-15T18:29:55.724Z,70.75
2022-12-15T18:32:26.206Z,66.35
2022-12-15T18:34:53.753Z,77.35
2022-12-15T18:37:22.328Z,74.20
2022-12-15T18:39:49.801Z,80.85
2022-12-15T18:42:18.795Z,71.25
2022-12-15T18:49:59.151Z,73.55
2022-12-15T18:52:31.477Z,76.55
2022-12-15T18:55:01.342Z,74.15
2022-12-15T18:57:31.517Z,77.65
2022-12-15T19:00:15.755Z,79.30
2022-12-15T19:02:42.724Z,77.88
2022-12-15T19:05:28.148Z,72.07
2022-12-15T19:10:57.315Z,88.80
2022-12-15T19:13:29.165Z,86.87
2022-12-15T19:15:56.857Z,83.90
2022-12-15T19:18:43.608Z,80.85
2022-12-15T19:21:42.174Z,76.80
2022-12-15T19:24:41.191Z,81.35
2022-12-15T19:27:19.823Z,82.95
2022-12-15T19:34:23.309Z,77.63
2022-12-15T19:36:50.080Z,84.53
2022-12-15T19:39:22.425Z,89.70
2022-12-15T19:41:49.262Z,88.90
2022-12-15T19:44:16.561Z,76.38
2022-12-15T19:46:43.833Z,86.50
2022-12-15T19:49:10.495Z,83.45
2022-12-15T19:56:49.226Z,78.13
2022-12-15T19:59:25.310Z,76.68
2022-12-15T20:01:52.406Z,81.60
2022-12-15T20:04:24.015Z,79.30
2022-12-15T20:06:51.083Z,87.43
2022-12-15T20:09:18.637Z,84.75
2022-12-15T20:11:45.775Z,83.38
2022-12-15T20:17:01.882Z,84.03
2022-12-15T20:19:28.717Z,83.20
2022-12-15T20:21:55.391Z,78.10
2022-12-15T20:24:22.077Z,80.70
2022-12-15T20:26:48.817Z,78.05
2022-12-15T20:29:24.078Z,75.15
2022-12-15T20:31:51.587Z,78.68
2022-12-15T20:39:28.726Z,85.43
2022-12-15T20:41:56.296Z,81.78
2022-12-15T20:44:23.534Z,81.18
2022-12-15T20:46:50.638Z,85.05
2022-12-15T20:49:19.282Z,85.28
2022-12-15T20:51:46.803Z,78.00
2022-12-15T20:54:16.596Z,76.82
2022-12-15T20:56:44.098Z,78.95
2022-12-15T21:04:26.577Z,90.93
2022-12-15T21:06:55.038Z,84.15
2022-12-15T21:09:22.628Z,82.07
2022-12-15T21:11:51.079Z,83.80
2022-12-15T21:14:21.627Z,84.60
2022-12-15T21:16:48.485Z,78.25
2022-12-15T21:19:23.276Z,80.53
2022-12-15T21:26:57.112Z,76.63
2022-12-15T21:29:26.809Z,79.47
2022-12-15T21:31:53.771Z,79.28
2022-12-15T21:34:20.508Z,84.32
2022-12-15T21:36:51.747Z,84.63
2022-12-15T21:39:29.160Z,76.05
2022-12-15T21:41:59.274Z,84.32
2022-12-15T21:49:33.376Z,86.55
2022-12-15T21:52:00.559Z,83.22
2022-12-15T21:54:31.844Z,85.18
2022-12-15T21:57:01.922Z,84.28
2022-12-15T21:59:31.554Z,77.63
2022-12-15T22:02:16.944Z,80.15
2022-12-15T22:04:44.438Z,78.03
2022-12-15T22:07:15.510Z,76.55
2022-12-15T22:09:43.238Z,83.05
2022-12-15T22:12:21.202Z,77.30
2022-12-15T22:14:48.939Z,87.22
2022-12-15T22:17:18.762Z,81.50
2022-12-15T22:19:46.143Z,80.40
2022-12-15T22:22:14.063Z,77.22
2022-12-15T22:24:41.578Z,73.90
2022-12-15T22:27:32.284Z,79.50
2022-12-15T22:29:59.625Z,80.28
2022-12-15T22:32:26.923Z,79.93
2022-12-15T22:34:54.252Z,80.78
2022-12-15T22:37:21.484Z,81.07
2022-12-15T22:39:49.521Z,80.25
2022-12-15T22:42:19.096Z,83.43
2022-12-15T22:44:49.147Z,80.03
2022-12-15T22:47:16.646Z,76.68
2022-12-15T22:49:44.057Z,74.75
2022-12-15T22:52:17.044Z,73.97
2022-12-15T22:54:45.939Z,78.90
2022-12-15T22:57:24.839Z,82.13
2022-12-15T23:00:02.941Z,72.03
2022-12-15T23:02:40.613Z,80.32
2022-12-15T23:05:09.116Z,72.75
2022-12-15T23:07:36.607Z,75.95
2022-12-15T23:10:23.343Z,75.78
2022-12-15T23:12:54.379Z,80.68
2022-12-15T23:15:42.220Z,75.35
2022-12-15T23:18:09.605Z,73.78
2022-12-15T23:20:36.853Z,76.53
2022-12-15T23:23:04.517Z,70.03
2022-12-15T23:25:31.850Z,69.25
2022-12-15T23:27:59.356Z,73.28
2022-12-15T23:30:27.032Z,83.80
2022-12-15T23:32:55.340Z,78.15
2022-12-15T23:35:23.225Z,71.05
2022-12-15T23:37:50.886Z,70.35
2022-12-15T23:40:22.010Z,73.20
2022-12-15T23:42:53.620Z,83.45
2022-12-15T23:45:21.428Z,78.30
2022-12-15T23:47:48.913Z,71.38
2022-12-15T23:50:16.292Z,76.70
2022-12-15T23:52:43.603Z,66.78
2022-12-15T23:55:11.367Z,80.85
2022-12-15T23:57:39.396Z,70.93
